Gao Qiang — VRVQ8 — position and weather

sailwx.info

Track history (hours):
 
Tides and Currents Weather Stations Pressure Air Temp Water Temp Dewpoint Dewpoint Depression Visibility Wind Speed Wind Dir Waves Ship Positions

Gao Qiang

Last reported at 2016-Oct-11 20:33 UTC. Time now 2016-Dec-06 14:03 UTC.
Position N 49°55' W 003°35'.
Warning: this ship's position is 55 days out of date.

Length 186 m; draft 9.1 m.

Type: Cargo ship. MMSI: 477611000.

Date/timePositionNaut miles runAvg speedWind from/ knotsBaromVisibWave heightAir tempDewpointWater temp
2016-Oct-11 20:33N 49°55' W 003°35'1413.9
2016-Oct-11 19:33N 50°03' W 003°17'2713.3
2016-Oct-11 17:33N 50°18' W 002°43'21 6.4
2016-Oct-11 14:13N 50°36' W 002°24'85 8.0
2016-Oct-11 03:34N 50°30' W 000°11'1212.4
2016-Oct-11 02:34N 50°32' E 000°08'1312.8
2016-Oct-11 01:32N 50°35' E 000°28'3113.7
2016-Oct-10 23:17N 50°53' E 001°08'1013.9
2016-Oct-10 22:33N 50°60' E 001°19'8911.1
2016-Oct-10 14:33N 51°26' E 003°35'7 6.9
2016-Oct-10 13:33N 51°24' E 003°46'0 0.1
2016-Oct-10 12:31N 51°24' E 003°46'0 0.0
2016-Oct-10 09:31N 51°24' E 003°46'0 0.1
2016-Oct-10 07:31N 51°24' E 003°46'25 4.3
2016-Oct-10 01:33N 51°35' E 003°10'1211.5
2016-Oct-10 00:33N 51°46' E 003°14'6 2.3
2016-Oct-09 22:12N 51°49' E 003°22'0 0.0
2016-Oct-09 09:24N 51°49' E 003°22'0 0.1
2016-Oct-09 08:33N 51°49' E 003°22'37 8.4
2016-Oct-09 04:11N 52°26' E 003°27'3413.0
2016-Oct-09 01:33N 52°55' E 003°56'1313.4
2016-Oct-09 00:33N 53°04' E 004°13'35811.2
2016-Oct-07 16:34N 57°19' E 011°32'13910.7
2016-Oct-07 03:34N 55°01' E 011°02'1212.2
2016-Oct-07 02:34N 54°50' E 010°52'1111.5
2016-Oct-07 01:34N 54°40' E 010°60'2613.1
2016-Oct-06 23:34N 54°28' E 011°40'1212.3
2016-Oct-06 22:33N 54°27' E 012°01'1010.2
2016-Oct-06 21:34N 54°33' E 012°14'8 7.7
2016-Oct-06 20:34N 54°40' E 012°22'5711.3
2016-Oct-06 15:29N 54°42' E 014°01'1311.7
2016-Oct-06 14:21N 54°38' E 014°23'4912.5
2016-Oct-06 10:28N 54°56' E 015°41'38911.8
2016-Oct-05 01:33N 59°42' E 023°49'1312.7
2016-Oct-05 00:33N 59°45' E 024°13'7712.9
2016-Oct-04 18:33N 60°01' E 026°44'3612.1
2016-Oct-04 15:33N 60°11' E 027°54'1212.3
2016-Oct-04 14:33N 60°07' E 028°18'1212.1
2016-Oct-04 13:33N 60°03' E 028°40'1312.9
2016-Oct-04 12:33N 60°02' E 029°06'2110.7
2016-Oct-04 10:33N 59°58' E 029°48'13 6.3
2016-Oct-04 08:33N 59°53' E 030°11'0 0.0
2016-Oct-04 07:33N 59°53' E 030°11'0 0.0
2016-Oct-04 04:33N 59°53' E 030°11'0 0.0
2016-Oct-04 02:33N 59°53' E 030°11'0 0.0
2016-Oct-03 23:33N 59°53' E 030°11'0 0.0
2016-Oct-03 20:33N 59°53' E 030°11'0 0.0
2016-Oct-03 19:33N 59°53' E 030°11'0 0.0
2016-Oct-03 17:33N 59°53' E 030°11'0 0.0
2016-Oct-03 11:33N 59°53' E 030°11'0 0.0
2016-Oct-03 10:33N 59°53' E 030°11'0 0.0
2016-Oct-03 09:33N 59°53' E 030°11'0 0.0
2016-Oct-03 05:33N 59°53' E 030°11'0 0.0
2016-Oct-03 04:33N 59°53' E 030°11'31 3.0
2016-Oct-02 18:07N 60°02' E 029°12'3212.4
2016-Oct-02 15:34N 60°08' E 028°10'1312.8
2016-Oct-02 14:34N 60°10' E 027°45'2612.9
2016-Oct-02 12:32N 59°58' E 026°58'6613.2
2016-Oct-02 07:33N 59°46' E 024°49'  
Track history (hours):
 
Tides and Currents Weather Stations Pressure Air Temp Water Temp Dewpoint Dewpoint Depression Visibility Wind Speed Wind Dir Waves Ship Positions

Gao Qiang

Last reported at 2016-Oct-11 20:33 UTC. Time now 2016-Dec-06 14:03 UTC.
Position N 49°55' W 003°35'.
Warning: this ship's position is 55 days out of date.

Length 186 m; draft 9.1 m.

Type: Cargo ship. MMSI: 477611000.

Date/timePositionNaut miles runAvg speedWind from/ knotsBaromVisibWave heightAir tempDewpointWater temp
2016-Oct-11 20:33N 49°55' W 003°35'1413.9
2016-Oct-11 19:33N 50°03' W 003°17'2713.3
2016-Oct-11 17:33N 50°18' W 002°43'21 6.4
2016-Oct-11 14:13N 50°36' W 002°24'85 8.0
2016-Oct-11 03:34N 50°30' W 000°11'1212.4
2016-Oct-11 02:34N 50°32' E 000°08'1312.8
2016-Oct-11 01:32N 50°35' E 000°28'3113.7
2016-Oct-10 23:17N 50°53' E 001°08'1013.9
2016-Oct-10 22:33N 50°60' E 001°19'8911.1
2016-Oct-10 14:33N 51°26' E 003°35'7 6.9
2016-Oct-10 13:33N 51°24' E 003°46'0 0.1
2016-Oct-10 12:31N 51°24' E 003°46'0 0.0
2016-Oct-10 09:31N 51°24' E 003°46'0 0.1
2016-Oct-10 07:31N 51°24' E 003°46'25 4.3
2016-Oct-10 01:33N 51°35' E 003°10'1211.5
2016-Oct-10 00:33N 51°46' E 003°14'6 2.3
2016-Oct-09 22:12N 51°49' E 003°22'0 0.0
2016-Oct-09 09:24N 51°49' E 003°22'0 0.1
2016-Oct-09 08:33N 51°49' E 003°22'37 8.4
2016-Oct-09 04:11N 52°26' E 003°27'3413.0
2016-Oct-09 01:33N 52°55' E 003°56'1313.4
2016-Oct-09 00:33N 53°04' E 004°13'35811.2
2016-Oct-07 16:34N 57°19' E 011°32'13910.7
2016-Oct-07 03:34N 55°01' E 011°02'1212.2
2016-Oct-07 02:34N 54°50' E 010°52'1111.5
2016-Oct-07 01:34N 54°40' E 010°60'2613.1
2016-Oct-06 23:34N 54°28' E 011°40'1212.3
2016-Oct-06 22:33N 54°27' E 012°01'1010.2
2016-Oct-06 21:34N 54°33' E 012°14'8 7.7
2016-Oct-06 20:34N 54°40' E 012°22'5711.3
2016-Oct-06 15:29N 54°42' E 014°01'1311.7
2016-Oct-06 14:21N 54°38' E 014°23'4912.5
2016-Oct-06 10:28N 54°56' E 015°41'38911.8
2016-Oct-05 01:33N 59°42' E 023°49'1312.7
2016-Oct-05 00:33N 59°45' E 024°13'7712.9
2016-Oct-04 18:33N 60°01' E 026°44'3612.1
2016-Oct-04 15:33N 60°11' E 027°54'1212.3
2016-Oct-04 14:33N 60°07' E 028°18'1212.1
2016-Oct-04 13:33N 60°03' E 028°40'1312.9
2016-Oct-04 12:33N 60°02' E 029°06'2110.7
2016-Oct-04 10:33N 59°58' E 029°48'13 6.3
2016-Oct-04 08:33N 59°53' E 030°11'0 0.0
2016-Oct-04 07:33N 59°53' E 030°11'0 0.0
2016-Oct-04 04:33N 59°53' E 030°11'0 0.0
2016-Oct-04 02:33N 59°53' E 030°11'0 0.0
2016-Oct-03 23:33N 59°53' E 030°11'0 0.0
2016-Oct-03 20:33N 59°53' E 030°11'0 0.0
2016-Oct-03 19:33N 59°53' E 030°11'0 0.0
2016-Oct-03 17:33N 59°53' E 030°11'0 0.0
2016-Oct-03 11:33N 59°53' E 030°11'0 0.0
2016-Oct-03 10:33N 59°53' E 030°11'0 0.0
2016-Oct-03 09:33N 59°53' E 030°11'0 0.0
2016-Oct-03 05:33N 59°53' E 030°11'0 0.0
2016-Oct-03 04:33N 59°53' E 030°11'31 3.0
2016-Oct-02 18:07N 60°02' E 029°12'3212.4
2016-Oct-02 15:34N 60°08' E 028°10'1312.8
2016-Oct-02 14:34N 60°10' E 027°45'2612.9
2016-Oct-02 12:32N 59°58' E 026°58'6613.2
2016-Oct-02 07:33N 59°46' E 024°49'  

Dump ship's entire track history